Terminal Aerodrome Forecast
Issued by NWS

Home | Current Version | Previous Version | Text Only | Print | Product List | Glossary Off
Versions: 1 2 3 4 5 6 7 8 9 10 11 12 13 14 15 16 17 18

842
FTUS43 KICT 092331
TAFRSL
TAF
KRSL 092331Z 1000/1024 05005KT P6SM OVC050
     FM100100 VRB04KT P6SM OVC050
     FM100600 20006KT P6SM BKN070
     FM101100 26007KT P6SM SKC
     FM101800 28016KT P6SM SKC=

USA.gov is the U.S. government's official web portal to all federal, state and local government web resources and services.